createdAt,value
2023-04-09T00:00:18.776Z,960.4600
2023-04-09T00:01:22.935Z,960.4642
2023-04-09T00:02:26.905Z,960.4475
2023-04-09T00:03:30.813Z,960.4366
2023-04-09T00:04:34.765Z,960.4216
2023-04-09T00:05:38.627Z,960.4058
2023-04-09T00:06:42.535Z,960.4050
2023-04-09T00:07:46.425Z,960.3983
2023-04-09T00:08:50.813Z,960.3942
2023-04-09T00:09:54.775Z,960.3992
2023-04-09T00:10:58.914Z,960.4050
2023-04-09T00:12:02.899Z,960.4033
2023-04-09T00:13:06.723Z,960.3975
2023-04-09T00:14:10.627Z,960.3959
2023-04-09T00:15:23.996Z,960.3934
2023-04-09T00:16:19.054Z,960.3828
2023-04-09T00:17:22.958Z,960.3842
2023-04-09T00:18:26.836Z,960.3784
2023-04-09T00:19:30.718Z,960.3775
2023-04-09T00:20:34.617Z,960.3633
2023-04-09T00:21:38.850Z,960.3591
2023-04-09T00:22:42.746Z,960.3566
2023-04-09T00:23:42.942Z,960.3482
2023-04-09T00:24:46.848Z,960.3533
2023-04-09T00:25:50.738Z,960.3400
2023-04-09T00:26:54.639Z,960.3467
2023-04-09T00:27:58.515Z,960.3350
2023-04-09T00:29:02.418Z,960.3292
2023-04-09T00:30:06.308Z,960.3167
2023-04-09T00:31:10.225Z,960.3058
2023-04-09T00:32:14.084Z,960.3008
2023-04-09T00:33:17.990Z,960.3000
2023-04-09T00:34:21.880Z,960.2925
2023-04-09T00:35:25.802Z,960.2783
2023-04-09T00:36:29.900Z,960.2667
2023-04-09T00:37:33.809Z,960.2475
2023-04-09T00:38:37.709Z,960.2366
2023-04-09T00:39:41.668Z,960.2258
2023-04-09T00:40:45.504Z,960.2117
2023-04-09T00:41:49.410Z,960.2067
2023-04-09T00:42:53.297Z,960.2034
2023-04-09T00:43:57.233Z,960.2084
2023-04-09T00:45:01.131Z,960.2092
2023-04-09T00:46:05.046Z,960.2142
2023-04-09T00:47:08.953Z,960.2125
2023-04-09T00:48:12.824Z,960.2167
2023-04-09T00:49:16.728Z,960.2150
2023-04-09T00:50:20.636Z,960.2067
2023-04-09T00:51:24.543Z,960.2125
2023-04-09T00:52:28.414Z,960.2084
2023-04-09T00:53:32.323Z,960.2017
2023-04-09T00:54:36.234Z,960.1959
2023-04-09T00:55:40.141Z,960.1800
2023-04-09T00:56:44.010Z,960.1700
2023-04-09T00:57:47.935Z,960.1575
2023-04-09T00:58:52.377Z,960.1542
2023-04-09T00:59:56.443Z,960.1533
2023-04-09T01:01:00.352Z,960.1575
2023-04-09T01:02:04.276Z,960.1658
2023-04-09T01:03:08.289Z,960.1542
2023-04-09T01:04:12.211Z,960.1467
2023-04-09T01:05:16.112Z,960.1434
2023-04-09T01:06:20.176Z,960.1334
2023-04-09T01:07:24.063Z,960.1317
2023-04-09T01:08:27.965Z,960.1275
2023-04-09T01:09:31.847Z,960.1200
2023-04-09T01:10:35.762Z,960.1208
2023-04-09T01:11:39.642Z,960.1250
2023-04-09T01:12:43.542Z,960.1208
2023-04-09T01:13:47.760Z,960.1250
2023-04-09T01:14:51.659Z,960.1325
2023-04-09T01:15:55.642Z,960.1334
2023-04-09T01:16:59.542Z,960.1417
2023-04-09T01:18:03.489Z,960.1367
2023-04-09T01:19:07.343Z,960.1334
2023-04-09T01:20:11.229Z,960.1275
2023-04-09T01:21:15.355Z,960.1259
2023-04-09T01:22:19.235Z,960.1166
2023-04-09T01:23:23.138Z,960.1166
2023-04-09T01:24:27.249Z,960.1158
2023-04-09T01:25:31.150Z,960.1191
2023-04-09T01:26:35.058Z,960.1250
2023-04-09T01:27:38.968Z,960.1216
2023-04-09T01:28:42.868Z,960.1133
2023-04-09T01:29:46.760Z,960.0983
2023-04-09T01:30:50.717Z,960.0759
2023-04-09T01:31:54.833Z,960.0641
2023-04-09T01:32:58.805Z,960.0558
2023-04-09T01:34:02.873Z,960.0516
2023-04-09T01:35:06.778Z,960.0450
2023-04-09T01:36:10.676Z,960.0491
2023-04-09T01:37:14.564Z,960.0508
2023-04-09T01:38:18.471Z,960.0550
2023-04-09T01:39:22.604Z,960.0550
2023-04-09T01:40:26.508Z,960.0508
2023-04-09T01:41:30.728Z,960.0433
2023-04-09T01:42:34.617Z,960.0508
2023-04-09T01:43:38.506Z,960.0558
2023-04-09T01:44:42.419Z,960.0550
2023-04-09T01:45:46.327Z,960.0625
2023-04-09T01:46:50.299Z,960.0659
2023-04-09T01:47:54.241Z,960.0641
2023-04-09T01:48:58.361Z,960.0616
2023-04-09T01:50:02.317Z,960.0583
2023-04-09T01:51:06.287Z,960.0550
2023-04-09T01:52:10.192Z,960.0616
2023-04-09T01:53:14.090Z,960.0667
2023-04-09T01:54:17.983Z,960.0709
2023-04-09T01:55:21.885Z,960.0767
2023-04-09T01:56:25.982Z,960.0883
2023-04-09T01:57:29.876Z,960.0884
2023-04-09T01:58:33.781Z,960.0975
2023-04-09T01:59:37.965Z,960.1025
2023-04-09T02:00:41.859Z,960.1041
2023-04-09T02:01:45.833Z,960.1050
2023-04-09T02:02:49.858Z,960.1000
2023-04-09T02:03:53.877Z,960.1016
2023-04-09T02:04:57.777Z,960.0950
2023-04-09T02:05:58.126Z,960.0940
2023-04-09T02:07:02.012Z,960.0900
2023-04-09T02:08:05.913Z,960.0917
2023-04-09T02:09:09.997Z,960.0933
2023-04-09T02:11:18.988Z,960.0967
2023-04-09T02:11:18.988Z,960.1040
2023-04-09T02:12:22.866Z,960.0983
2023-04-09T02:13:26.771Z,960.1041
2023-04-09T02:14:30.668Z,960.1066
2023-04-09T02:15:34.585Z,960.1108
2023-04-09T02:16:38.747Z,960.1091
2023-04-09T02:17:42.656Z,960.1125
2023-04-09T02:18:46.779Z,960.1091
2023-04-09T02:19:50.650Z,960.1075
2023-04-09T02:20:54.545Z,960.1116
2023-04-09T02:21:58.437Z,960.1050
2023-04-09T02:23:02.345Z,960.0842
2023-04-09T02:24:06.259Z,960.0725
2023-04-09T02:25:10.172Z,960.0634
2023-04-09T02:26:14.051Z,960.0500
2023-04-09T02:27:18.007Z,960.0541
2023-04-09T02:28:21.874Z,960.0558
2023-04-09T02:29:25.797Z,960.0450
2023-04-09T02:30:29.664Z,960.0350
2023-04-09T02:31:33.866Z,960.0309
2023-04-09T02:32:37.831Z,960.0259
2023-04-09T02:33:41.703Z,960.0192
2023-04-09T02:34:45.601Z,960.0092
2023-04-09T02:35:49.546Z,960.0067
2023-04-09T02:36:53.404Z,960.0084
2023-04-09T02:37:57.318Z,960.0084
2023-04-09T02:39:01.438Z,960.0109
2023-04-09T02:40:05.373Z,960.0209
2023-04-09T02:41:09.257Z,960.0209
2023-04-09T02:42:13.357Z,960.0134
2023-04-09T02:43:17.273Z,960.0167
2023-04-09T02:44:21.146Z,960.0150
2023-04-09T02:45:25.062Z,960.0117
2023-04-09T02:46:29.013Z,960.0167
2023-04-09T02:47:32.968Z,960.0159
2023-04-09T02:48:36.839Z,960.0134
2023-04-09T02:49:40.742Z,960.0225
2023-04-09T02:50:44.664Z,960.0175
2023-04-09T02:51:48.623Z,960.0192
2023-04-09T02:52:52.531Z,960.0159
2023-04-09T02:53:56.732Z,960.0134
2023-04-09T02:55:00.644Z,960.0192
2023-04-09T02:56:04.525Z,960.0125
2023-04-09T02:57:08.437Z,960.0059
2023-04-09T02:58:12.312Z,960.0009
2023-04-09T02:59:16.222Z,959.9866
2023-04-09T03:00:20.117Z,959.9875
2023-04-09T03:01:24.035Z,959.9866
2023-04-09T03:02:28.091Z,959.9816
2023-04-09T03:03:32.098Z,959.9716
2023-04-09T03:04:36.033Z,959.9667
2023-04-09T03:05:39.937Z,959.9542
2023-04-09T03:06:44.053Z,959.9475
2023-04-09T03:07:47.959Z,959.9425
2023-04-09T03:08:52.281Z,959.9417
2023-04-09T03:09:56.306Z,959.9442
2023-04-09T03:11:00.184Z,959.9542
2023-04-09T03:12:04.090Z,959.9500
2023-04-09T03:13:07.982Z,959.9450
2023-04-09T03:14:11.879Z,959.9409
2023-04-09T03:15:15.785Z,959.9333
2023-04-09T03:16:19.724Z,959.9200
2023-04-09T03:17:23.593Z,959.9108
2023-04-09T03:18:27.509Z,959.8917
2023-04-09T03:19:31.395Z,959.8750
2023-04-09T03:20:35.291Z,959.8666
2023-04-09T03:21:39.184Z,959.8658
2023-04-09T03:22:43.089Z,959.8691
2023-04-09T03:23:46.974Z,959.8633
2023-04-09T03:24:50.874Z,959.8700
2023-04-09T03:25:54.774Z,959.8842
2023-04-09T03:26:58.887Z,959.8859
2023-04-09T03:28:02.830Z,959.8750
2023-04-09T03:29:06.690Z,959.8800
2023-04-09T03:30:10.595Z,959.8850
2023-04-09T03:31:14.554Z,959.8850
2023-04-09T03:32:19.174Z,959.8975
2023-04-09T03:33:23.053Z,959.9017
2023-04-09T03:34:26.963Z,959.9042
2023-04-09T03:35:30.884Z,959.9025
2023-04-09T03:36:34.777Z,959.8992
2023-04-09T03:37:38.660Z,959.8950
2023-04-09T03:38:42.576Z,959.8867
2023-04-09T03:39:46.693Z,959.8741
2023-04-09T03:40:50.606Z,959.8700
2023-04-09T03:41:54.710Z,959.8725
2023-04-09T03:42:58.632Z,959.8650
2023-04-09T03:44:02.529Z,959.8641
2023-04-09T03:45:06.424Z,959.8650
2023-04-09T03:46:10.327Z,959.8834
2023-04-09T03:47:14.442Z,959.8867
2023-04-09T03:48:18.342Z,959.8942
2023-04-09T03:49:22.472Z,959.8967
2023-04-09T03:50:26.354Z,959.8909
2023-04-09T03:51:30.265Z,959.8900
2023-04-09T03:52:34.153Z,959.8809
2023-04-09T03:53:38.087Z,959.8884
2023-04-09T03:54:42.291Z,959.8917
2023-04-09T03:55:46.198Z,959.8925
2023-04-09T03:56:50.342Z,959.8909
2023-04-09T03:57:54.247Z,959.8934
2023-04-09T03:58:58.174Z,959.8892
2023-04-09T04:00:02.073Z,959.9025
2023-04-09T04:01:05.954Z,959.9017
2023-04-09T04:02:09.934Z,959.9075
2023-04-09T04:03:13.984Z,959.9075
2023-04-09T04:04:20.468Z,959.9108
2023-04-09T04:05:20.558Z,959.9055
2023-04-09T04:06:24.468Z,959.8967
2023-04-09T04:07:28.363Z,959.9241
2023-04-09T04:08:32.280Z,959.9050
2023-04-09T04:09:36.176Z,959.9200
2023-04-09T04:10:40.084Z,959.9258
2023-04-09T04:11:43.973Z,959.9275
2023-04-09T04:12:47.942Z,959.9708
2023-04-09T04:13:51.820Z,959.9908
2023-04-09T04:14:55.739Z,959.9808
2023-04-09T04:15:59.664Z,959.9833
2023-04-09T04:17:03.761Z,960.0025
2023-04-09T04:18:07.648Z,959.9833
2023-04-09T04:19:11.874Z,959.9575
2023-04-09T04:20:15.752Z,959.9558
2023-04-09T04:21:19.657Z,959.9584
2023-04-09T04:22:26.112Z,959.9608
2023-04-09T04:23:24.909Z,960.0227
2023-04-09T04:24:28.799Z,960.0209
2023-04-09T04:25:32.712Z,959.9941
2023-04-09T04:26:36.612Z,960.0200
2023-04-09T04:27:40.525Z,960.0634
2023-04-09T04:28:44.420Z,960.1017
2023-04-09T04:29:44.515Z,960.1273
2023-04-09T04:30:48.406Z,960.1334
2023-04-09T04:31:52.347Z,960.1508
2023-04-09T04:32:56.240Z,960.1741
2023-04-09T04:34:00.195Z,960.1758
2023-04-09T04:35:04.271Z,960.1866
2023-04-09T04:36:08.166Z,960.2092
2023-04-09T04:37:12.292Z,960.2216
2023-04-09T04:38:16.181Z,960.2341
2023-04-09T04:39:20.095Z,960.2425
2023-04-09T04:40:23.960Z,960.2375
2023-04-09T04:41:27.869Z,960.2450
2023-04-09T04:42:31.961Z,960.2500
2023-04-09T04:43:35.867Z,960.2534
2023-04-09T04:44:39.979Z,960.2516
2023-04-09T04:45:43.926Z,960.2525
2023-04-09T04:46:47.799Z,960.2466
2023-04-09T04:47:51.716Z,960.2450
2023-04-09T04:48:55.587Z,960.2400
2023-04-09T04:49:59.501Z,960.2283
2023-04-09T04:51:03.373Z,960.2175
2023-04-09T04:52:07.614Z,960.2300
2023-04-09T04:53:11.499Z,960.2416
2023-04-09T04:54:15.399Z,960.2475
2023-04-09T04:55:19.289Z,960.2516
2023-04-09T04:56:23.194Z,960.2550
2023-04-09T04:57:27.085Z,960.2567
2023-04-09T04:58:31.005Z,960.2617
2023-04-09T04:59:35.111Z,960.2567
2023-04-09T05:00:39.020Z,960.2534
2023-04-09T05:01:43.015Z,960.2659
2023-04-09T05:02:47.263Z,960.2659
2023-04-09T05:03:51.216Z,960.2725
2023-04-09T05:04:55.192Z,960.2325
2023-04-09T05:05:59.078Z,960.2358
2023-04-09T05:07:02.958Z,960.2584
2023-04-09T05:08:06.872Z,960.2625
2023-04-09T05:09:10.765Z,960.2700
2023-04-09T05:10:14.660Z,960.2450
2023-04-09T05:11:18.536Z,960.2250
2023-04-09T05:12:22.690Z,960.2266
2023-04-09T05:13:26.572Z,960.2225
2023-04-09T05:14:30.484Z,960.2358
2023-04-09T05:15:34.361Z,960.2325
2023-04-09T05:16:38.291Z,960.2316
2023-04-09T05:17:42.203Z,960.2441
2023-04-09T05:18:46.106Z,960.2433
2023-04-09T05:19:49.999Z,960.2350
2023-04-09T05:20:53.912Z,960.2183
2023-04-09T05:21:58.004Z,960.2167
2023-04-09T05:23:01.930Z,960.2225
2023-04-09T05:24:05.818Z,960.2092
2023-04-09T05:25:09.701Z,960.2050
2023-04-09T05:26:13.590Z,960.2067
2023-04-09T05:27:17.502Z,960.2083
2023-04-09T05:28:21.401Z,960.2183
2023-04-09T05:29:26.890Z,960.2183
2023-04-09T05:30:30.800Z,960.2117
2023-04-09T05:31:34.681Z,960.2025
2023-04-09T05:32:38.629Z,960.2042
2023-04-09T05:33:42.487Z,960.1925
2023-04-09T05:34:46.395Z,960.1917
2023-04-09T05:35:50.301Z,960.1791
2023-04-09T05:36:54.208Z,960.1658
2023-04-09T05:37:58.293Z,960.1425
2023-04-09T05:39:02.196Z,960.1259
2023-04-09T05:40:06.414Z,960.1141
2023-04-09T05:41:10.314Z,960.0992
2023-04-09T05:42:14.235Z,960.0967
2023-04-09T05:43:18.105Z,960.0884
2023-04-09T05:44:22.007Z,960.0875
2023-04-09T05:45:25.901Z,960.0850
2023-04-09T05:46:29.911Z,960.0958
2023-04-09T05:47:33.886Z,960.1058
2023-04-09T05:48:37.772Z,960.1050
2023-04-09T05:49:41.640Z,960.1050
2023-04-09T05:50:54.475Z,960.1100
2023-04-09T05:51:50.026Z,960.1154
2023-04-09T05:52:53.934Z,960.1091
2023-04-09T05:53:57.820Z,960.1158
2023-04-09T05:55:01.766Z,960.1141
2023-04-09T05:56:05.609Z,960.1050
2023-04-09T05:57:09.760Z,960.1133
2023-04-09T05:58:13.637Z,960.1158
2023-04-09T05:59:17.536Z,960.1200
2023-04-09T06:00:21.637Z,960.1225
2023-04-09T06:01:25.548Z,960.1275
2023-04-09T06:02:29.485Z,960.1459
2023-04-09T06:03:33.470Z,960.1459
2023-04-09T06:04:37.433Z,960.1392
2023-04-09T06:05:41.330Z,960.1309
2023-04-09T06:06:45.205Z,960.1325
2023-04-09T06:07:49.120Z,960.1367
2023-04-09T06:08:53.014Z,960.1342
2023-04-09T06:09:56.910Z,960.1350
2023-04-09T06:11:00.815Z,960.1384
2023-04-09T06:12:04.754Z,960.1375
2023-04-09T06:13:08.600Z,960.1459
2023-04-09T06:14:12.509Z,960.1600
2023-04-09T06:15:16.398Z,960.1675
2023-04-09T06:16:20.335Z,960.1783
2023-04-09T06:17:20.568Z,960.1900
2023-04-09T06:18:24.440Z,960.1992
2023-04-09T06:19:28.345Z,960.2183
2023-04-09T06:20:32.235Z,960.2291
2023-04-09T06:21:36.131Z,960.2233
2023-04-09T06:22:40.012Z,960.2050
2023-04-09T06:23:43.900Z,960.2000
2023-04-09T06:24:48.132Z,960.1992
2023-04-09T06:25:52.056Z,960.1909
2023-04-09T06:26:55.946Z,960.1884
2023-04-09T06:27:59.827Z,960.1934
2023-04-09T06:29:03.695Z,960.1841
2023-04-09T06:30:07.626Z,960.1775
2023-04-09T06:31:11.537Z,960.1725
2023-04-09T06:32:15.624Z,960.1716
2023-04-09T06:33:19.595Z,960.1625
2023-04-09T06:34:23.493Z,960.1675
2023-04-09T06:35:27.399Z,960.1683
2023-04-09T06:36:31.295Z,960.1750
2023-04-09T06:37:35.192Z,960.1884
2023-04-09T06:38:39.086Z,960.1934
2023-04-09T06:39:50.553Z,960.1925
2023-04-09T06:40:47.480Z,960.1946
2023-04-09T06:41:51.373Z,960.1984
2023-04-09T06:42:55.262Z,960.1925
2023-04-09T06:43:59.145Z,960.1950
2023-04-09T06:45:03.060Z,960.2000
2023-04-09T06:46:06.958Z,960.2108
2023-04-09T06:47:10.850Z,960.2142
2023-04-09T06:48:14.951Z,960.2167
2023-04-09T06:49:18.848Z,960.2192
2023-04-09T06:50:22.978Z,960.2400
2023-04-09T06:51:26.862Z,960.2458
2023-04-09T06:52:30.775Z,960.2559
2023-04-09T06:53:34.743Z,960.2709
2023-04-09T06:54:38.594Z,960.2717
2023-04-09T06:55:42.486Z,960.2825
2023-04-09T06:56:46.380Z,960.2883
2023-04-09T06:57:50.583Z,960.2925
2023-04-09T06:58:54.489Z,960.3008
2023-04-09T06:59:58.374Z,960.2983
2023-04-09T07:01:02.298Z,960.2983
2023-04-09T07:02:06.285Z,960.2941
2023-04-09T07:03:10.253Z,960.3016
2023-04-09T07:04:14.201Z,960.2900
2023-04-09T07:05:18.323Z,960.2833
2023-04-09T07:06:22.198Z,960.2900
2023-04-09T07:07:26.315Z,960.2916
2023-04-09T07:08:30.229Z,960.2975
2023-04-09T07:09:34.131Z,960.2916
2023-04-09T07:10:38.015Z,960.2875
2023-04-09T07:11:41.894Z,960.2908
2023-04-09T07:12:45.809Z,960.2858
2023-04-09T07:13:49.692Z,960.2900
2023-04-09T07:14:53.591Z,960.3000
2023-04-09T07:15:57.508Z,960.3016
2023-04-09T07:17:01.428Z,960.2950
2023-04-09T07:18:05.309Z,960.2867
2023-04-09T07:19:09.217Z,960.2908
2023-04-09T07:20:13.314Z,960.2842
2023-04-09T07:21:17.236Z,960.2684
2023-04-09T07:22:21.114Z,960.2559
2023-04-09T07:23:25.021Z,960.2516
2023-04-09T07:24:28.905Z,960.2475
2023-04-09T07:25:32.858Z,960.2425
2023-04-09T07:26:36.706Z,960.2366
2023-04-09T07:27:40.616Z,960.2391
2023-04-09T07:28:44.503Z,960.2358
2023-04-09T07:29:48.429Z,960.2425
2023-04-09T07:30:52.316Z,960.2466
2023-04-09T07:31:56.244Z,960.2458
2023-04-09T07:33:00.520Z,960.2592
2023-04-09T07:34:04.423Z,960.2833
2023-04-09T07:35:08.307Z,960.2975
2023-04-09T07:36:12.463Z,960.3134
2023-04-09T07:37:16.379Z,960.3225
2023-04-09T07:38:20.281Z,960.3192
2023-04-09T07:39:24.174Z,960.3058
2023-04-09T07:40:24.685Z,960.3127
2023-04-09T07:41:28.590Z,960.3175
2023-04-09T07:42:32.698Z,960.3250
2023-04-09T07:43:36.589Z,960.3342
2023-04-09T07:44:40.500Z,960.3483
2023-04-09T07:45:44.411Z,960.3600
2023-04-09T07:46:48.346Z,960.3734
2023-04-09T07:47:52.251Z,960.3859
2023-04-09T07:48:56.137Z,960.3909
2023-04-09T07:50:00.060Z,960.3934
2023-04-09T07:51:04.170Z,960.3859
2023-04-09T07:52:08.083Z,960.3741
2023-04-09T07:53:11.964Z,960.3766
2023-04-09T07:54:15.862Z,960.3817
2023-04-09T07:55:20.022Z,960.3875
2023-04-09T07:56:23.935Z,960.3892
2023-04-09T07:57:27.821Z,960.3884
2023-04-09T07:58:31.714Z,960.3909
2023-04-09T07:59:35.608Z,960.3750
2023-04-09T08:00:36.050Z,960.3672
2023-04-09T08:01:39.968Z,960.3633
2023-04-09T08:02:43.970Z,960.3633
2023-04-09T08:03:48.102Z,960.3725
2023-04-09T08:04:52.109Z,960.3859
2023-04-09T08:05:52.612Z,960.3800
2023-04-09T08:06:56.505Z,960.3725
2023-04-09T08:08:00.425Z,960.3675
2023-04-09T08:09:04.308Z,960.3725
2023-04-09T08:10:08.206Z,960.3809
2023-04-09T08:11:12.102Z,960.3850
2023-04-09T08:12:16.025Z,960.3983
2023-04-09T08:13:19.901Z,960.4166
2023-04-09T08:14:23.807Z,960.4325
2023-04-09T08:15:27.775Z,960.4391
2023-04-09T08:16:31.662Z,960.4475
2023-04-09T08:17:35.540Z,960.4542
2023-04-09T08:18:39.632Z,960.4509
2023-04-09T08:19:43.534Z,960.4442
2023-04-09T08:20:47.647Z,960.4484
2023-04-09T08:21:51.554Z,960.4450
2023-04-09T08:22:55.443Z,960.4350
2023-04-09T08:23:59.358Z,960.4409
2023-04-09T08:25:03.250Z,960.4400
2023-04-09T08:26:07.136Z,960.4417
2023-04-09T08:27:11.036Z,960.4366
2023-04-09T08:28:14.966Z,960.4434
2023-04-09T08:29:18.834Z,960.4575
2023-04-09T08:30:22.782Z,960.4725
2023-04-09T08:31:26.681Z,960.4941
2023-04-09T08:32:30.628Z,960.5100
2023-04-09T08:33:34.498Z,960.5217
2023-04-09T08:34:38.410Z,960.5358
2023-04-09T08:35:42.299Z,960.5433
2023-04-09T08:36:46.249Z,960.5491
2023-04-09T08:37:50.100Z,960.5500
2023-04-09T08:38:54.099Z,960.5500
2023-04-09T08:39:58.122Z,960.5500
2023-04-09T08:41:02.044Z,960.5684
2023-04-09T08:42:05.939Z,960.5767
2023-04-09T08:43:10.067Z,960.5675
2023-04-09T08:44:13.961Z,960.5967
2023-04-09T08:45:17.874Z,960.6125
2023-04-09T08:46:21.779Z,960.6033
2023-04-09T08:47:25.717Z,960.6008
2023-04-09T08:48:29.683Z,960.5850
2023-04-09T08:49:33.576Z,960.5700
2023-04-09T08:50:37.806Z,960.5734
2023-04-09T08:51:41.696Z,960.5850
2023-04-09T08:52:45.600Z,960.5975
2023-04-09T08:53:49.721Z,960.6008
2023-04-09T08:54:53.650Z,960.5950
2023-04-09T08:55:57.550Z,960.6058
2023-04-09T08:57:01.466Z,960.6266
2023-04-09T08:58:05.356Z,960.6325
2023-04-09T08:59:09.260Z,960.6409
2023-04-09T09:00:13.148Z,960.6583
2023-04-09T09:01:17.084Z,960.6675
2023-04-09T09:02:21.035Z,960.6592
2023-04-09T09:03:25.040Z,960.6708
2023-04-09T09:04:29.025Z,960.6875
2023-04-09T09:05:32.940Z,960.6850
2023-04-09T09:06:36.843Z,960.6841
2023-04-09T09:07:40.736Z,960.6891
2023-04-09T09:08:44.629Z,960.6950
2023-04-09T09:09:48.529Z,960.7158
2023-04-09T09:10:52.428Z,960.7283
2023-04-09T09:11:56.336Z,960.7316
2023-04-09T09:13:00.282Z,960.7375
2023-04-09T09:14:04.195Z,960.7266
2023-04-09T09:15:08.093Z,960.7217
2023-04-09T09:16:12.053Z,960.7400
2023-04-09T09:17:15.947Z,960.7475
2023-04-09T09:18:19.850Z,960.7458
2023-04-09T09:19:23.751Z,960.7408
2023-04-09T09:20:27.803Z,960.7450
2023-04-09T09:21:31.758Z,960.7450
2023-04-09T09:22:35.644Z,960.7433
2023-04-09T09:23:39.553Z,960.7333
2023-04-09T09:24:43.450Z,960.7283
2023-04-09T09:25:47.366Z,960.7325
2023-04-09T09:26:51.270Z,960.7341
2023-04-09T09:27:55.422Z,960.7366
2023-04-09T09:28:59.328Z,960.7416
2023-04-09T09:30:03.208Z,960.7500
2023-04-09T09:31:07.119Z,960.7341
2023-04-09T09:32:10.991Z,960.7283
2023-04-09T09:33:14.895Z,960.7316
2023-04-09T09:34:18.821Z,960.7283
2023-04-09T09:35:22.782Z,960.7391
2023-04-09T09:36:26.663Z,960.7475
2023-04-09T09:37:30.562Z,960.7550
2023-04-09T09:38:34.441Z,960.7383
2023-04-09T09:39:38.352Z,960.7225
2023-04-09T09:40:42.240Z,960.7291
2023-04-09T09:41:46.148Z,960.7283
2023-04-09T09:42:50.047Z,960.7241
2023-04-09T09:43:53.946Z,960.7059
2023-04-09T09:44:57.834Z,960.6884
2023-04-09T09:46:02.002Z,960.6750
2023-04-09T09:47:05.931Z,960.6434
2023-04-09T09:48:10.133Z,960.6558
2023-04-09T09:49:14.021Z,960.6592
2023-04-09T09:50:18.017Z,960.6492
2023-04-09T09:51:22.024Z,960.6417
2023-04-09T09:52:26.733Z,960.6492
2023-04-09T09:53:30.647Z,960.6508
2023-04-09T09:54:34.546Z,960.6459
2023-04-09T09:55:38.455Z,960.6325
2023-04-09T09:56:42.365Z,960.6292
2023-04-09T09:57:46.284Z,960.6241
2023-04-09T09:58:50.651Z,960.6275
2023-04-09T09:59:54.688Z,960.6392
2023-04-09T10:00:58.632Z,960.6392
2023-04-09T10:02:02.572Z,960.6425
2023-04-09T10:03:06.869Z,960.6342
2023-04-09T10:04:10.814Z,960.6317
2023-04-09T10:05:14.681Z,960.6292
2023-04-09T10:06:18.577Z,960.6225
2023-04-09T10:07:22.501Z,960.6158
2023-04-09T10:08:26.463Z,960.6200
2023-04-09T10:09:30.401Z,960.6200
2023-04-09T10:10:34.296Z,960.6100
2023-04-09T10:11:38.204Z,960.5942
2023-04-09T10:12:42.116Z,960.6033
2023-04-09T10:13:46.001Z,960.6050
2023-04-09T10:14:49.906Z,960.5850
2023-04-09T10:15:53.897Z,960.5641
2023-04-09T10:16:57.794Z,960.5533
2023-04-09T10:18:01.704Z,960.5425
2023-04-09T10:19:05.593Z,960.5358
2023-04-09T10:20:09.482Z,960.5475
2023-04-09T10:21:13.379Z,960.5425
2023-04-09T10:22:17.261Z,960.5367
2023-04-09T10:23:21.168Z,960.5300
2023-04-09T10:24:25.061Z,960.4933
2023-04-09T10:25:28.961Z,960.4558
2023-04-09T10:26:32.860Z,960.4216
2023-04-09T10:27:36.758Z,960.4275
2023-04-09T10:28:40.655Z,960.4375
2023-04-09T10:29:44.555Z,960.4033
2023-04-09T10:30:48.688Z,960.4150
2023-04-09T10:31:52.574Z,960.4208
2023-04-09T10:32:56.536Z,960.4291
2023-04-09T10:34:00.394Z,960.4233
2023-04-09T10:35:04.326Z,960.4017
2023-04-09T10:36:08.194Z,960.3809
2023-04-09T10:37:12.093Z,960.3792
2023-04-09T10:38:16.013Z,960.3825
2023-04-09T10:39:19.897Z,960.3766
2023-04-09T10:40:23.776Z,960.3825
2023-04-09T10:41:27.718Z,960.3716
2023-04-09T10:42:31.583Z,960.3575
2023-04-09T10:43:35.497Z,960.3425
2023-04-09T10:44:39.378Z,960.3517
2023-04-09T10:45:43.285Z,960.3809
2023-04-09T10:46:47.221Z,960.3942
2023-04-09T10:47:51.169Z,960.4075
2023-04-09T10:48:55.020Z,960.3875
2023-04-09T10:49:58.928Z,960.3775
2023-04-09T10:51:02.817Z,960.3558
2023-04-09T10:52:07.123Z,960.3392
2023-04-09T10:53:07.159Z,960.3345
2023-04-09T10:54:11.084Z,960.3358
2023-04-09T10:55:14.972Z,960.3284
2023-04-09T10:56:18.877Z,960.3008
2023-04-09T10:57:22.762Z,960.2883
2023-04-09T10:58:26.657Z,960.2858
2023-04-09T10:59:30.549Z,960.2875
2023-04-09T11:00:34.463Z,960.2817
2023-04-09T11:01:38.467Z,960.2725
2023-04-09T11:02:42.572Z,960.2634
2023-04-09T11:03:46.552Z,960.2559
2023-04-09T11:04:50.477Z,960.2525
2023-04-09T11:05:54.353Z,960.2258
2023-04-09T11:06:58.233Z,960.2084
2023-04-09T11:08:02.128Z,960.1900
2023-04-09T11:09:02.539Z,960.1545
2023-04-09T11:10:06.452Z,960.1725
2023-04-09T11:11:10.336Z,960.1934
2023-04-09T11:12:14.248Z,960.2075
2023-04-09T11:13:14.458Z,960.2164
2023-04-09T11:14:18.366Z,960.2050
2023-04-09T11:15:22.253Z,960.1859
2023-04-09T11:16:27.883Z,960.1741
2023-04-09T11:17:27.582Z,960.1582
2023-04-09T11:18:27.907Z,960.1663
2023-04-09T11:19:31.787Z,960.1608
2023-04-09T11:20:35.725Z,960.1483
2023-04-09T11:21:39.578Z,960.1241
2023-04-09T11:22:43.488Z,960.1442
2023-04-09T11:23:47.597Z,960.1450
2023-04-09T11:24:51.508Z,960.1350
2023-04-09T11:25:55.614Z,960.1250
2023-04-09T11:26:59.516Z,960.1150
2023-04-09T11:28:03.406Z,960.1050
2023-04-09T11:29:07.305Z,960.1033
2023-04-09T11:30:11.243Z,960.1225
2023-04-09T11:31:15.151Z,960.1350
2023-04-09T11:32:19.000Z,960.1508
2023-04-09T11:33:23.139Z,960.1508
2023-04-09T11:34:27.021Z,960.1467
2023-04-09T11:35:30.984Z,960.1459
2023-04-09T11:36:35.088Z,960.1300
2023-04-09T11:37:38.988Z,960.1116
2023-04-09T11:38:42.881Z,960.1091
2023-04-09T11:39:46.779Z,960.1300
2023-04-09T11:40:50.901Z,960.1259
2023-04-09T11:41:54.821Z,960.1166
2023-04-09T11:42:58.686Z,960.1266
2023-04-09T11:44:02.577Z,960.1200
2023-04-09T11:45:06.496Z,960.1000
2023-04-09T11:46:10.377Z,960.1091
2023-04-09T11:47:14.285Z,960.0884
2023-04-09T11:48:18.228Z,960.0700
2023-04-09T11:49:22.152Z,960.0750
2023-04-09T11:50:26.025Z,960.0867
2023-04-09T11:51:29.928Z,960.1133
2023-04-09T11:52:33.813Z,960.1317
2023-04-09T11:53:37.726Z,960.1550
2023-04-09T11:54:41.624Z,960.1409
2023-04-09T11:55:45.618Z,960.1483
2023-04-09T11:56:49.764Z,960.1117
2023-04-09T11:57:53.679Z,960.0892
2023-04-09T11:58:57.575Z,960.0742
2023-04-09T12:00:03.806Z,960.0466
2023-04-09T12:01:03.897Z,960.0573
2023-04-09T12:02:07.885Z,960.0817
2023-04-09T12:03:12.135Z,960.0884
2023-04-09T12:04:16.587Z,960.0800
2023-04-09T12:05:20.549Z,960.0817
2023-04-09T12:06:24.558Z,960.0850
2023-04-09T12:07:28.437Z,960.0742
2023-04-09T12:08:32.560Z,960.0767
2023-04-09T12:09:36.469Z,960.0659
2023-04-09T12:10:40.339Z,960.0358
2023-04-09T12:11:44.220Z,960.0325
2023-04-09T12:12:48.144Z,960.0300
2023-04-09T12:13:52.033Z,960.0050
2023-04-09T12:14:55.920Z,959.9800
2023-04-09T12:16:00.050Z,959.9617
2023-04-09T12:17:03.967Z,959.9642
2023-04-09T12:18:07.932Z,959.9700
2023-04-09T12:19:12.044Z,959.9550
2023-04-09T12:20:15.954Z,959.9384
2023-04-09T12:21:19.836Z,959.9492
2023-04-09T12:22:23.742Z,959.9584
2023-04-09T12:23:27.641Z,959.9542
2023-04-09T12:24:31.546Z,959.9366
2023-04-09T12:25:35.460Z,959.9409
2023-04-09T12:26:39.338Z,959.9525
2023-04-09T12:27:43.223Z,959.9525
2023-04-09T12:28:47.137Z,959.9633
2023-04-09T12:29:51.019Z,959.9717